Tiempo atmosférico en la estación meteorológica de Taramundi, Ouria, Asturias (335 m.)



Fecha
DESCASC
Temp. máxima en grados centígrados (hora)
DESCASC
Temp. mínima en grados centígrados (hora)
DESCASC
Temp. media en grados centígrados
DESCASC
Racha de viento máxima en m/sg (hora)
DESCASC
Velocidad máxima media en intervalos de 10 minutos(hora)
DESCASC
Precipitaciones diarias en mm
DESCASC
Precipitaciones de 00:00 a 06:00 en mm
DESCASC
Precipitaciones de 06:00 a 12:00 en mm
DESCASC
Precipitaciones de 12:00 a 18:00 en mm
DESCASC
Precipitaciones de 18:00 a 24:00 en mm
DESCASC
22-11-2020 17.8 (14:10) 8.1 (04:10) 12.9 5.28 (07:20) 3.33 (13:20) 0 0 0 0 0
21-11-2020 13.4 (15:10) 5.4 (09:00) 9.4 3.89 (11:20) 3.33 (11:20) 0 0 0 0 0
20-11-2020 13 (15:20) 6.4 (09:10) 9.7 6.11 (00:30) 4.44 (00:20) 0 0 0 0 0
19-11-2020 14 (00:00) 9.4 (00:00) 11.7 8.89 (16:40) 6.67 (01:50) 3.2 2.8 0.2 0.2 0
18-11-2020 21.4 (14:30) 14 (00:00) 17.7 16.11 (12:40) 9.72 (11:50) 0.4 0 0 0 0.4
17-11-2020 20 (16:20) 8.1 (00:00) 14.1 5.56 (02:10) 3.61 (02:10) 0 0 0 0 0
16-11-2020 15 (15:20) 8 (00:00) 11.5 3.33 (14:20) 2.22 (15:50) 0 0 0 0 0
15-11-2020 17.9 (06:20) 9.8 (00:00) 13.8 21.67 (07:00) 13.61 (00:30) 8 1 4 3 0
14-11-2020 19.4 (16:10) 14.2 (00:00) 16.8 20.83 (06:50) 14.44 (07:10) 0 0 0 0 0
13-11-2020 19.9 (15:30) 12.5 (00:00) 16.2 10.28 (07:50) 6.11 (07:50) 0 0 0 0 0
12-11-2020 20.7 (14:50) 11.5 (00:00) 16.1 15.56 (00:50) 8.06 (00:10) 0 0 0 0 0
11-11-2020 16.8 (12:50) 9.1 (00:00) 12.9 25.83 (14:00) 15.28 (14:00) 0 0 0 0 0
10-11-2020 15.9 (14:30) 8.9 (00:00) 12.4 6.11 (10:50) 3.61 (10:30) 0 0 0 0 0
09-11-2020 16.2 (16:00) 11.6 (00:00) 13.9 16.94 (01:20) 10.56 (01:20) 9 5.8 3.2 0 0
08-11-2020 18.6 (13:40) 11.6 (00:00) 15.1 16.94 (20:20) 10.56 (11:40) 7.4 0 5.6 0.8 1
07-11-2020 19.1 (15:10) 9.6 (00:00) 14.4 18.61 (16:20) 10.28 (16:20) 0 0 0 0 0
06-11-2020 18.6 (13:20) 9.1 (00:00) 13.9 13.61 (21:50) 8.33 (21:50) 2.6 0 0 0 2.6
05-11-2020 11.2 (14:00) 8.4 (00:00) 9.8 14.17 (01:40) 8.06 (01:40) 0 0 0 0 0
04-11-2020 10 (15:00) 5 (00:00) 7.5 14.44 (17:30) 9.72 (17:30) 3.8 1.2 2.4 0.2 0
03-11-2020 11.6 (13:40) 6.5 (00:00) 9.1 7.22 (15:10) 5.28 (15:10) 4.8 1.2 2.8 0 0.8
02-11-2020 19.2 (09:50) 7.9 (00:00) 13.6 18.61 (06:20) 11.39 (07:20) 15.4 0.2 8.4 6.8 0
01-11-2020 21.1 (13:40) 17.3 (00:00) 19.2 24.44 (18:10) 14.72 (12:20) 0.4 0.2 0.2 0 0
31-10-2020 20.3 (14:40) 14 (00:00) 17.1 24.17 (21:50) 13.06 (08:40) 0 0 0 0 0
30-10-2020 21.2 (14:10) 7.9 (00:00) 14.6 11.67 (09:10) 6.39 (09:00) 0 0 0 0 0
29-10-2020 17.9 (15:00) 9.2 (00:00) 13.5 9.72 (12:50) 5.83 (06:50) 0 0 0 0 0
28-10-2020 16.1 (14:20) 10.6 (00:00) 13.4 13.06 (16:00) 7.78 (11:10) 0 0 0 0 0

Gráficas

Temp. máximas Temp. mínimas Temp. medias Precipitaciones Rachas de viento máximas Velocidades máximas media en intervalos de 10 minutos

Datos horarios

Fecha y hora oficial Temperatura (ºC) Velocidad del viento (km/h) Dirección del viento Racha (km/h) Dirección de racha Precipitación (mm) Presión (hPa) Tendencia (hPa) Humedad (%)
2020-11-26 23:00:00 8.5 3 Sur 12 Sur 0 -- -- 100
2020-11-26 22:00:00 8.5 6 Sur 7 Sur 0 -- -- 100
2020-11-26 21:00:00 8.9 5 Sur 7 Sur 0 -- -- 100
2020-11-26 20:00:00 9.3 0 Calma 4 Sur 0 -- -- 100
2020-11-26 19:00:00 9.3 0 Calma 3 Sur 0 -- -- 100
2020-11-26 18:00:00 10 3 Sur 6 Sur 0 -- -- 100
2020-11-26 17:00:00 11.1 3 Norte 8 Norte 0 -- -- 98
2020-11-26 16:00:00 12.1 7 Norte 9 Norte 0 -- -- 98
2020-11-26 15:00:00 12.5 3 Noroeste 11 Sur 0 -- -- 98
2020-11-26 14:00:00 12.1 6 Sur 13 Sudeste 0 -- -- 100
2020-11-26 13:00:00 10.5 9 Sur 15 Sur 0 -- -- 100
2020-11-26 12:00:00 9.5 11 Sur 13 Sur 0 -- -- 100
2020-11-26 11:00:00 9 2 Norte 8 Sur 0 -- -- 100
2020-11-26 10:00:00 8 5 Sur 13 Sur 0 -- -- 100
2020-11-26 09:00:00 7 8 Sur 11 Sur 0 -- -- 100
2020-11-26 08:00:00 7.6 4 Sudoeste 8 Sur 0 -- -- 100
2020-11-26 07:00:00 8 0 Calma 8 Sur 0 -- -- 100
2020-11-26 06:00:00 8 0 Calma 4 Sur 0 -- -- 100
2020-11-26 05:00:00 8.1 0 Calma 7 Sur 0 -- -- 100
2020-11-26 04:00:00 8.2 5 Sur 9 Sur 0 -- -- 100
2020-11-26 03:00:00 8.1 7 Sur 10 Sur 0.4 -- -- 100
2020-11-26 02:00:00 8 6 Sur 7 Sur 0 -- -- 100
2020-11-26 01:00:00 8.3 0 Calma 6 Sur 0 -- -- 100
2020-11-26 00:00:00 8.1 4 Sur 5 Sur 0.2 -- -- 100
2020-11-25 23:00:00 8 3 Sur 6 Sur 0.4 -- -- 100
2020-11-25 22:00:00 7.8 3 Sur 6 Norte 0.6 -- -- 100
2020-11-25 21:00:00 7.9 3 Sur 6 Norte 1.4 -- -- 100
2020-11-25 20:00:00 8 6 Norte 10 Norte 0.4 -- -- 100
2020-11-25 19:00:00 8.1 6 Norte 9 Norte 0.2 -- -- 100
2020-11-25 18:00:00 8.3 3 Norte 8 Norte 0.4 -- -- 99
2020-11-25 17:00:00 8.4 5 Norte 8 Norte 3.4 -- -- 98
2020-11-25 16:00:00 8.8 2 Sur 8 Sudoeste 0.4 -- -- 96
2020-11-25 15:00:00 8.8 4 Sur 17 Sur 0.6 -- -- 94
2020-11-25 14:00:00 9.2 8 Sur 19 Sur 0.2 -- -- 93
2020-11-25 13:00:00 9.5 14 Sur 22 Sur 0 -- -- 91
2020-11-25 12:00:00 9.6 11 Sur 20 Sur 0 -- -- 92
2020-11-25 11:00:00 9.7 13 Sur 20 Sur 0 -- -- 94
2020-11-25 10:00:00 9.2 12 Sur 18 Sur 0 -- -- 96
2020-11-25 09:00:00 9.3 9 Sur 21 Sur 0 -- -- 95
2020-11-25 08:00:00 9.6 13 Sur 26 Sur 0 -- -- 95
2020-11-25 07:00:00 9.9 6 Sur 31 Sur 0 -- -- 94
2020-11-25 06:00:00 10.2 13 Sur 31 Sudoeste 0.4 -- -- 92
2020-11-25 05:00:00 11.4 18 Sur 37 Sur 0 -- -- 84
2020-11-25 04:00:00 11.8 19 Sur 47 Sur 0 -- -- 82
2020-11-25 03:00:00 11 21 Sur 53 Sur 0.4 -- -- 89
2020-11-25 02:00:00 10.9 33 Sur 53 Sur 1.4 -- -- 93
2020-11-25 01:00:00 11.7 19 Sur 53 Sur 0.4 -- -- 87
2020-11-25 00:00:00 13.8 25 Sur 58 Sur 0 -- -- 71
2020-11-24 23:00:00 14.2 30 Sur 54 Sur 0 -- -- 67
2020-11-24 22:00:00 14.2 32 Sur 57 Sur 0 -- -- 65
2020-11-24 21:00:00 14.2 25 Sur 49 Sur 0 -- -- 65
2020-11-24 20:00:00 14.8 30 Sur 55 Sur 0 -- -- 63
2020-11-24 19:00:00 14.7 24 Sur 48 Sur 0 -- -- 64
2020-11-24 18:00:00 14.3 19 Sur 39 Sur 0 -- -- 67
2020-11-24 17:00:00 14.8 13 Sur 42 Sur 0 -- -- 68
2020-11-24 16:00:00 15.5 21 Sur 38 Sur 0 -- -- 67
2020-11-24 15:00:00 15.1 18 Sur 38 Sur 0 -- -- 67
2020-11-24 14:00:00 15.1 14 Sur 31 Sur 0 -- -- 65
2020-11-24 13:00:00 15.5 23 Sur 37 Sur 0 -- -- 63
2020-11-24 12:00:00 15 22 Sur 33 Sur 0 -- -- 66
2020-11-24 11:00:00 13.1 16 Sur 31 Sur 0 -- -- 72
2020-11-24 10:00:00 11.7 14 Sur 39 Sur 0 -- -- 77
2020-11-24 09:00:00 10.1 10 Sur 23 Sudoeste 0 -- -- 79
2020-11-24 08:00:00 7.6 8 Sur 16 Sur 0 -- -- 88
2020-11-24 07:00:00 7.3 6 Sur 9 Sur 0 -- -- 86
2020-11-24 06:00:00 8.2 4 Sur 10 Sur 0 -- -- 83
2020-11-24 05:00:00 8 5 Sur 11 Sur 0 -- -- 85
2020-11-24 04:00:00 8.6 4 Sur 9 Sur 0 -- -- 82
2020-11-24 03:00:00 9.7 5 Sur 13 Sur 0 -- -- 80
2020-11-24 02:00:00 8.9 9 Sur 18 Sur 0 -- -- 84
2020-11-24 01:00:00 9.2 8 Sur 14 Sudoeste 0 -- -- 82
2020-11-24 00:00:00 9.3 5 Sur 14 Sur 0 -- -- 82
2020-11-23 23:00:00 9.2 7 Sur 12 Sur 0 -- -- 87
2020-11-23 22:00:00 9 5 Sur -- -- 0 -- -- 93
2020-11-23 21:00:00 9.2 4 Sur 5 Sur 0 -- -- 92
2020-11-23 20:00:00 9.8 0 Calma 6 Sur 0 -- -- 90
2020-11-23 19:00:00 10.3 5 Sur 6 Sur 0 -- -- 92
2020-11-23 18:00:00 11.6 0 Calma 3 Norte 0 -- -- 89
2020-11-23 17:00:00 12.6 2 Norte 6 Norte 0 -- -- 85
2020-11-23 16:00:00 14.2 4 Norte 5 Norte 0 -- -- 81
2020-11-23 15:00:00 14.5 0 Calma 6 Norte 0 -- -- 78
2020-11-23 14:00:00 14.5 4 Norte 5 Norte 0 -- -- 77
2020-11-23 13:00:00 13.8 4 Sur 8 Sur 0 -- -- 76
2020-11-23 12:00:00 12.3 3 Sudeste 13 Sur 0 -- -- 79
2020-11-23 11:00:00 11 7 Sur 11 Sur 0 -- -- 83
2020-11-23 10:00:00 8.1 7 Sur 11 Sur 0 -- -- 94
2020-11-23 09:00:00 6.3 6 Sur 9 Sur 0 -- -- 95
2020-11-23 08:00:00 6.5 5 Sur 10 Sur 0 -- -- 95
2020-11-23 07:00:00 6.8 5 Sur 9 Sur 0 -- -- 96
2020-11-23 06:00:00 7.1 0 Calma 4 Sur 0 -- -- 96
2020-11-23 05:00:00 6.8 3 Sur 11 Sur 0 -- -- 95
2020-11-23 04:00:00 6.8 7 Sur 12 Sur 0 -- -- 95
2020-11-23 03:00:00 6.9 6 Sur 8 Sur 0 -- -- 95
2020-11-23 02:00:00 7.9 3 Sur 9 Sur 0 -- -- 93
2020-11-23 01:00:00 7.8 3 Sur 6 Sur 0 -- -- 94
2020-11-23 00:00:00 8.1 4 Sur 6 Sur 0 -- -- 94
2020-11-22 23:00:00 8.4 4 Sur 5 Sur 0 -- -- 95
2020-11-22 22:00:00 8.7 4 Sur 5 Sur 0 -- -- 94
2020-11-22 21:00:00 9.1 0 Calma 6 Sur 0 -- -- 92
2020-11-22 20:00:00 9.3 0 Calma 4 Sur 0 -- -- 92
2020-11-22 19:00:00 9.7 0 Calma 4 Norte 0 -- -- 90
2020-11-22 18:00:00 10.4 0 Calma 6 Norte 0 -- -- 90
2020-11-22 17:00:00 11.5 6 Norte 9 Norte 0 -- -- 86
2020-11-22 16:00:00 14.2 4 Norte 9 Norte 0 -- -- 80
2020-11-22 15:00:00 16.3 6 Norte 15 Sudeste 0 -- -- 71
2020-11-22 14:00:00 17.7 8 Sur 17 Sur 0 -- -- 54
2020-11-22 13:00:00 16.1 10 Sur 14 Sur 0 -- -- 66
2020-11-22 12:00:00 14.6 7 Sur 14 Sur 0 -- -- 71
2020-11-22 11:00:00 13.2 10 Sur 15 Sur 0 -- -- 73
2020-11-22 10:00:00 10.2 8 Sur 15 Sur 0 -- -- 86
2020-11-22 09:00:00 9 9 Sur 19 Sur 0 -- -- 90
2020-11-22 08:00:00 8.7 8 Sur 19 Sur 0 -- -- 91
2020-11-22 07:00:00 8.5 9 Sur 18 Sur 0 -- -- 95
2020-11-22 06:00:00 9.2 4 Sur 12 Sudoeste 0 -- -- 94
2020-11-22 05:00:00 8.5 7 Sur 13 Sur 0 -- -- 97
2020-11-22 04:00:00 8.2 5 Sur 9 Sur 0 -- -- 96
2020-11-22 03:00:00 9 6 Sur 13 Sur 0 -- -- 98
2020-11-22 02:00:00 9 0 Calma 15 Sur 0 -- -- 98
2020-11-22 01:00:00 9.1 10 Sur 17 Sur 0 -- -- 98
2020-11-22 00:00:00 8.4 5 Sur 10 Sudoeste 0 -- -- 99
2020-11-21 23:00:00 8.9 6 Sur 8 Sur 0 -- -- 97
2020-11-21 22:00:00 8.8 3 Sur 8 Sur 0 -- -- 98
2020-11-21 21:00:00 8.8 5 Sur 11 Sudoeste 0 -- -- 97
2020-11-21 20:00:00 8.3 6 Sur 8 Sur 0 -- -- 96
2020-11-21 19:00:00 9 4 Sur 5 Sur 0 -- -- 94
2020-11-21 18:00:00 9.6 0 Calma 5 Noroeste 0 -- -- 91
2020-11-21 17:00:00 11.2 3 Norte 8 Norte 0 -- -- 86
2020-11-21 16:00:00 13.3 5 Norte 7 Norte 0 -- -- 83
2020-11-21 15:00:00 13.2 5 Norte 10 Norte 0 -- -- 83
2020-11-21 14:00:00 12.9 6 Norte 10 Sur 0 -- -- 81
2020-11-21 13:00:00 12.8 6 Sur 9 Sur 0 -- -- 83
2020-11-21 12:00:00 11.3 8 Sur 14 Sur 0 -- -- 94
2020-11-21 11:00:00 9.5 10 Sur 13 Sur 0 -- -- 100
2020-11-21 10:00:00 6.6 8 Sur 10 Sur 0 -- -- 100
2020-11-21 09:00:00 5.4 6 Sur 8 Sur 0 -- -- 100
2020-11-21 08:00:00 5.6 7 Sur 9 Sur 0 -- -- 100
2020-11-21 07:00:00 5.9 7 Sur 10 Sur 0 -- -- 100
2020-11-21 06:00:00 6.2 4 Sur 6 Sur 0 -- -- 100
2020-11-21 05:00:00 6.2 5 Sur 7 Sur 0 -- -- 100
2020-11-21 04:00:00 6.4 4 Sur 7 Sur 0 -- -- 100
2020-11-21 03:00:00 6.5 4 Sur 6 Sur 0 -- -- 100
2020-11-21 02:00:00 6.6 4 Sur 8 Sur 0 -- -- 100
2020-11-21 01:00:00 6.7 6 Sur 7 Sur 0 -- -- 100
2020-11-21 00:00:00 6.9 5 Sur 8 Sudoeste 0 -- -- 100
2020-11-20 23:00:00 7 5 Sur 9 Sur 0 -- -- 99
2020-11-20 22:00:00 7.2 4 Sur 8 Sur 0 -- -- 99
2020-11-20 21:00:00 7.6 4 Sur 6 Sur 0 -- -- 97
2020-11-20 20:00:00 8.2 2 Sudoeste 8 Norte 0 -- -- 95
2020-11-20 19:00:00 8.9 7 Norte 13 Norte 0 -- -- 94
2020-11-20 18:00:00 9.7 5 Norte 11 Norte 0 -- -- 92
2020-11-20 17:00:00 11.2 9 Norte 18 Noroeste 0 -- -- 88
2020-11-20 16:00:00 12.6 14 Norte 19 Norte 0 -- -- 84
2020-11-20 15:00:00 12.9 13 Norte 19 Norte 0 -- -- 86
2020-11-20 14:00:00 12.7 9 Norte 14 Norte 0 -- -- 88
2020-11-20 13:00:00 11.9 8 Norte 12 Norte 0 -- -- 93
2020-11-20 12:00:00 11.3 4 Norte 6 Sur 0 -- -- 96
2020-11-20 11:00:00 10.1 0 Calma 5 Sur 0 -- -- 100
2020-11-20 10:00:00 7.3 4 Sur 6 Sur 0 -- -- 100
2020-11-20 09:00:00 6.5 6 Sur 8 Sur 0 -- -- 100
2020-11-20 08:00:00 7.2 4 Norte 14 Norte 0 -- -- 100
2020-11-20 07:00:00 7.8 11 Norte 15 Norte 0 -- -- 100
2020-11-20 06:00:00 8.2 12 Norte 17 Norte 0 -- -- 100
2020-11-20 05:00:00 9.1 13 Norte 17 Norte 0 -- -- 100
2020-11-20 04:00:00 9.1 12 Norte 16 Norte 0 -- -- 100
2020-11-20 03:00:00 9.1 13 Norte 17 Norte 0 -- -- 100
2020-11-20 02:00:00 9.1 13 Norte 18 Norte 0 -- -- 100
2020-11-20 01:00:00 9.2 14 Norte 22 Norte 0 -- -- 100
2020-11-20 00:00:00 9.4 14 Norte 21 Norte 0 -- -- 100
2020-11-19 23:00:00 9.5 14 Norte 24 Norte 0 -- -- 100
2020-11-19 22:00:00 9.5 15 Norte 25 Norte 0 -- -- 100
2020-11-19 21:00:00 9.6 18 Norte 27 Norte 0 -- -- 100
2020-11-19 20:00:00 9.5 12 Norte 24 Norte 0 -- -- 100
2020-11-19 19:00:00 9.5 14 Norte 25 Norte 0 -- -- 100
2020-11-19 18:00:00 9.7 16 Norte 30 Norte 0 -- -- 100
2020-11-19 17:00:00 10 21 Norte 32 Norte 0.2 -- -- 100
2020-11-19 16:00:00 10.4 20 Norte 32 Norte 0 -- -- 100
2020-11-19 15:00:00 10.3 16 Norte 28 Norte 0 -- -- 100
2020-11-19 14:00:00 10.4 17 Norte 22 Norte 0 -- -- 100
2020-11-19 13:00:00 10.9 8 Norte 15 Norte 0 -- -- 100
2020-11-19 12:00:00 10.3 12 Norte 20 Norte 0 -- -- 100
2020-11-19 11:00:00 10 13 Norte 22 Norte 0 -- -- 100
2020-11-19 10:00:00 9.8 14 Norte 28 Norte 0 -- -- 100
2020-11-19 09:00:00 9.8 19 Norte 29 Norte 0 -- -- 100
2020-11-19 08:00:00 9.8 20 Norte 28 Norte 0 -- -- 100
2020-11-19 07:00:00 10.1 21 Norte 32 Norte 0.2 -- -- 100
2020-11-19 06:00:00 10.7 20 Norte 28 Norte 0.2 -- -- 100
2020-11-19 05:00:00 10.7 17 Norte 25 Norte 0.2 -- -- 100
2020-11-19 04:00:00 11.1 12 Norte 19 Norte 0 -- -- 100
2020-11-19 03:00:00 11.2 15 Norte 25 Norte 0.4 -- -- 100
2020-11-19 02:00:00 11.6 21 Norte 32 Norte 1.2 -- -- 100
2020-11-19 01:00:00 12.6 20 Norte 28 Norte 0.8 -- -- 100
2020-11-19 00:00:00 14 10 Norte 17 Nordeste 0 -- -- 100
2020-11-18 23:00:00 14.4 9 Norte 13 Norte 0 -- -- 99
2020-11-18 22:00:00 14.6 4 Nordeste 12 Nordeste 0 -- -- 97
2020-11-18 21:00:00 15.5 0 Calma 15 Norte 0.2 -- -- 94
2020-11-18 20:00:00 16.3 12 Norte 17 Nordeste 0.2 -- -- 86
2020-11-18 19:00:00 17.8 0 Calma 11 Sur 0 -- -- 73
2020-11-18 18:00:00 19.6 6 Sur 36 Sur 0 -- -- 66
2020-11-18 17:00:00 20.1 16 Sur 39 Sur 0 -- -- 65
2020-11-18 16:00:00 21.1 30 Sur 49 Sur 0 -- -- 61
2020-11-18 15:00:00 21.2 31 Sur 51 Sur 0 -- -- 61
2020-11-18 14:00:00 21.2 28 Sur 56 Sur 0 -- -- 62
2020-11-18 13:00:00 21.1 30 Sur 58 Sudoeste 0 -- -- 62
2020-11-18 12:00:00 20.8 31 Sur 58 Sur 0 -- -- 62
2020-11-18 11:00:00 20.2 29 Sur 57 Sur 0 -- -- 65
2020-11-18 10:00:00 19 27 Sur 58 Sur 0 -- -- 68
2020-11-18 09:00:00 17.9 20 Sur 41 Sur 0 -- -- 74
2020-11-18 08:00:00 17.9 17 Sur 37 Sur 0 -- -- 74
2020-11-18 07:00:00 18.1 17 Sur 42 Sudoeste 0 -- -- 74
2020-11-18 06:00:00 18.5 22 Sur 44 Sur 0 -- -- 73
2020-11-18 05:00:00 18.4 18 Sur 42 Sur 0 -- -- 73
2020-11-18 04:00:00 18.7 26 Sur 47 Sur 0 -- -- 69
2020-11-18 03:00:00 18.4 20 Sur 51 Sur 0 -- -- 67
2020-11-18 02:00:00 18.5 27 Sur 48 Sur 0 -- -- 62
2020-11-18 01:00:00 18 18 Sur 42 Sur 0 -- -- 62
2020-11-18 00:00:00 14.3 3 Oeste 14 Oeste 0 -- -- 74
2020-11-17 23:00:00 14.8 0 Calma 6 Nordeste 0 -- -- 72
2020-11-17 22:00:00 14.9 0 Calma 3 Este 0 -- -- 72
2020-11-17 21:00:00 15.4 0 Calma 5 Sur 0 -- -- 74
2020-11-17 20:00:00 15.4 4 Sur 8 Sur 0 -- -- 80
2020-11-17 19:00:00 15.5 5 Sur 5 Sur 0 -- -- 81
2020-11-17 18:00:00 16.1 5 Sur 9 Sur 0 -- -- 79
2020-11-17 17:00:00 18.2 3 Sur 6 Sur 0 -- -- 71
2020-11-17 16:00:00 19.3 2 Sur 7 Norte 0 -- -- 70
2020-11-17 15:00:00 19.1 4 Norte 6 Sur 0 -- -- 70
2020-11-17 14:00:00 18.5 6 Sur 17 Sur 0 -- -- 66
2020-11-17 13:00:00 17.4 8 Sur 12 Sur 0 -- -- 68
2020-11-17 12:00:00 16 6 Sur 13 Sur 0 -- -- 70
2020-11-17 11:00:00 13.7 9 Sur 16 Sur 0 -- -- 74
2020-11-17 10:00:00 11.5 8 Sur 15 Sur 0 -- -- 78
2020-11-17 09:00:00 9.3 9 Sur 11 Sur 0 -- -- 80
2020-11-17 08:00:00 8.8 8 Sudoeste 13 Sudoeste 0 -- -- 86
2020-11-17 07:00:00 9.2 5 Sudoeste 17 Sur 0 -- -- 86
2020-11-17 06:00:00 9.3 7 Sur 19 Sur 0 -- -- 89
2020-11-17 05:00:00 8.6 10 Sur 17 Sur 0 -- -- 94
2020-11-17 04:00:00 9.1 6 Sur 13 Sur 0 -- -- 93
2020-11-17 03:00:00 8.9 8 Sur 20 Sur 0 -- -- 97
2020-11-17 02:00:00 8.4 8 Sur 15 Sur 0 -- -- 99
2020-11-17 01:00:00 8.4 4 Sur 9 Sudoeste 0 -- -- 98
2020-11-17 00:00:00 8.7 2 Sur 5 Sur 0 -- -- 98
2020-11-16 23:00:00 8.7 4 Sur 8 Sur 0 -- -- 97
2020-11-16 22:00:00 8.8 4 Sur 7 Sur 0 -- -- 95
2020-11-16 21:00:00 9 4 Sur 5 Sur 0 -- -- 95
2020-11-16 20:00:00 9.2 3 Sur 5 Sur 0 -- -- 93
2020-11-16 19:00:00 9.9 2 Sur 4 Sur 0 -- -- 89
2020-11-16 18:00:00 10.9 0 Calma 8 Noroeste 0 -- -- 86
2020-11-16 17:00:00 12.3 6 Norte 10 Norte 0 -- -- 81
2020-11-16 16:00:00 14.5 6 Noroeste 12 Norte 0 -- -- 77
2020-11-16 15:00:00 14.8 3 Sur 12 Norte 0 -- -- 76
2020-11-16 14:00:00 13.6 6 Norte 8 Norte 0 -- -- 75
2020-11-16 13:00:00 13.2 2 Nordeste 9 Norte 0 -- -- 73
2020-11-16 12:00:00 13.6 2 Sudeste 6 Sur 0 -- -- 74
2020-11-16 11:00:00 12.3 0 Calma 5 Sur 0 -- -- 87
2020-11-16 10:00:00 9.8 5 Sur 8 Sudoeste 0 -- -- 96
2020-11-16 09:00:00 8.1 4 Sur 8 Sur 0 -- -- 98
2020-11-16 08:00:00 8.4 0 Calma 5 Sudoeste 0 -- -- 97
2020-11-16 07:00:00 9.1 4 Sur 7 Sur 0 -- -- 98
2020-11-16 06:00:00 9.3 2 Sudoeste 8 Sur 0 -- -- 98
2020-11-16 05:00:00 9.3 3 Sur 7 Sur 0 -- -- 98
2020-11-16 04:00:00 9.6 3 Sur 6 Sudoeste 0 -- -- 97
2020-11-16 03:00:00 10.3 3 Sur 7 Sur 0 -- -- 96
2020-11-16 02:00:00 10.4 0 Calma 7 Sur 0 -- -- 95
2020-11-16 01:00:00 10.4 2 Sur 9 Sur 0 -- -- 96
2020-11-16 00:00:00 9.9 5 Sur 11 Sudeste 0 -- -- 97
2020-11-15 23:00:00 10.6 5 Sur 12 Sur 0 -- -- 95
2020-11-15 22:00:00 10.9 3 Sur 6 Sudoeste 0 -- -- 95
2020-11-15 21:00:00 11 0 Calma 5 Sur 0 -- -- 95
2020-11-15 20:00:00 11.5 0 Calma 7 Sudeste 0 -- -- 94
2020-11-15 19:00:00 11.9 3 Nordeste 17 Nordeste 0 -- -- 94
2020-11-15 18:00:00 12.9 4 Sur 28 Sudeste 0 -- -- 93
2020-11-15 17:00:00 12.9 12 Sur 35 Sudeste 0 -- -- 96
2020-11-15 16:00:00 13.2 18 Sur 39 Sur 0 -- -- 94
2020-11-15 15:00:00 13.1 22 Sur 45 Sur 0.6 -- -- 96
2020-11-15 14:00:00 13 18 Sur 35 Sur 2 -- -- 96
2020-11-15 13:00:00 14 6 Sudoeste 30 Sur 0.4 -- -- 95
2020-11-15 12:00:00 15.3 16 Sur 59 Sur 2.2 -- -- 95
2020-11-15 11:00:00 15.9 26 Sur 63 Sur 1 -- -- 93
2020-11-15 10:00:00 17.2 35 Sur 62 Sur 0 -- -- 85
2020-11-15 09:00:00 16.6 42 Sur 70 Sur 0.2 -- -- 90
2020-11-15 08:00:00 16 33 Sur 69 Sur 0.6 -- -- 90
2020-11-15 07:00:00 17.7 44 Sur 78 Sur 0 -- -- 79
2020-11-15 06:00:00 17.7 46 Sur 76 Sur 0 -- -- 78
2020-11-15 05:00:00 17.1 43 Sur 71 Sur 0 -- -- 81
2020-11-15 04:00:00 17.2 49 Sur 72 Sur 0.8 -- -- 81
2020-11-15 03:00:00 16.6 45 Sur 73 Sudoeste 0.2 -- -- 81
2020-11-15 02:00:00 17.5 44 Sur 74 Sur 0 -- -- 76
2020-11-15 01:00:00 17.3 41 Sur 75 Sur 0 -- -- 76
2020-11-15 00:00:00 17.5 43 Sur 67 Sur 0 -- -- 73
2020-11-14 23:00:00 17.1 26 Sur 65 Sur 0 -- -- 71
2020-11-14 22:00:00 17.2 33 Sur 63 Sur 0 -- -- 73
2020-11-14 21:00:00 17.6 36 Sur 67 Sudoeste 0 -- -- 70
2020-11-14 20:00:00 17.7 33 Sur 64 Sur 0 -- -- 69
2020-11-14 19:00:00 18 39 Sur 73 Sur 0 -- -- 68
2020-11-14 18:00:00 18.1 35 Sur 59 Sur 0 -- -- 67
2020-11-14 17:00:00 18.6 31 Sur 73 Sur 0 -- -- 66
2020-11-14 16:00:00 19.3 30 Sur 62 Sur 0 -- -- 64
2020-11-14 15:00:00 18.7 32 Sur 69 Sur 0 -- -- 64
2020-11-14 14:00:00 18.4 31 Sur 71 Sur 0 -- -- 64
2020-11-14 13:00:00 18 34 Sur 62 Sur 0 -- -- 61
2020-11-14 12:00:00 16.9 27 Sur 60 Sur 0 -- -- 62
2020-11-14 11:00:00 16.3 37 Sur 63 Sur 0 -- -- 62
2020-11-14 10:00:00 15.7 33 Sur 53 Sur 0 -- -- 63
2020-11-14 09:00:00 15.3 31 Sur 58 Sur 0 -- -- 63
2020-11-14 08:00:00 15 39 Sur 73 Sur 0 -- -- 62
2020-11-14 07:00:00 15.2 47 Sur 75 Sur 0 -- -- 62
2020-11-14 06:00:00 15 46 Sur 67 Sur 0 -- -- 59
2020-11-14 05:00:00 15 30 Sur 60 Sur 0 -- -- 58
2020-11-14 04:00:00 15.4 38 Sur 57 Sur 0 -- -- 58
2020-11-14 03:00:00 15.3 25 Sur 50 Sur 0 -- -- 62
2020-11-14 02:00:00 14.7 18 Sur 47 Sur 0 -- -- 65
2020-11-14 01:00:00 14.3 17 Sur 39 Sur 0 -- -- 67
2020-11-14 00:00:00 14.4 17 Sur 34 Sur 0 -- -- 66
2020-11-13 23:00:00 12.9 6 Sudoeste 18 Sur 0 -- -- 76
2020-11-13 22:00:00 12.6 0 Calma 0 Calma 0 -- -- 81
2020-11-13 21:00:00 12.9 0 Calma 4 Oeste 0 -- -- 79
2020-11-13 20:00:00 14 0 Calma 4 Sur 0 -- -- 76
2020-11-13 19:00:00 14.5 0 Calma 5 Oeste 0 -- -- 74
2020-11-13 18:00:00 15.7 0 Calma 17 Sur 0 -- -- 70
2020-11-13 17:00:00 17.9 9 Sur 23 Sur 0 -- -- 61
2020-11-13 16:00:00 19.9 10 Sur 24 Sur 0 -- -- 52
2020-11-13 15:00:00 19.6 18 Sur 33 Sur 0 -- -- 51
2020-11-13 14:00:00 19.2 19 Sur 35 Sur 0 -- -- 54
2020-11-13 13:00:00 18.6 16 Sur 33 Sur 0 -- -- 59
2020-11-13 12:00:00 18 18 Sur 33 Sur 0 -- -- 60
2020-11-13 11:00:00 16.6 14 Sur 33 Sudeste 0 -- -- 64
2020-11-13 10:00:00 15 19 Sur 33 Sur 0 -- -- 66
2020-11-13 09:00:00 13.8 13 Sur 34 Sur 0 -- -- 69
2020-11-13 08:00:00 14.5 20 Sur 37 Sur 0 -- -- 64
2020-11-13 07:00:00 13.8 5 Sur 35 Sur 0 -- -- 68
2020-11-13 06:00:00 15.1 17 Sur 36 Sur 0 -- -- 63
2020-11-13 05:00:00 14.8 16 Sur 31 Sur 0 -- -- 65
2020-11-13 04:00:00 12.9 6 Sur 13 Sur 0 -- -- 73
2020-11-13 03:00:00 15 7 Sur 30 Sudeste 0 -- -- 62
2020-11-13 02:00:00 15.7 17 Sur 32 Sur 0 -- -- 63
2020-11-13 01:00:00 15.7 15 Sur 33 Sur 0 -- -- 66
2020-11-13 00:00:00 15.3 11 Sur 30 Sur 0 -- -- 71
2020-11-12 23:00:00 13.9 4 Sudoeste 16 Sudoeste 0 -- -- 79
2020-11-12 22:00:00 14.3 4 Sudoeste 17 Sudoeste 0 -- -- 77
2020-11-12 21:00:00 14.9 5 Sur 15 Sur 0 -- -- 75
2020-11-12 20:00:00 13.7 3 Sudoeste 17 Sur 0 -- -- 74
2020-11-12 19:00:00 14.3 4 Sudoeste 15 Sur 0 -- -- 70
2020-11-12 18:00:00 15.6 4 Sudoeste 10 Sur 0 -- -- 64
2020-11-12 17:00:00 18.1 3 Sudoeste 18 Sudoeste 0 -- -- 59
2020-11-12 16:00:00 20.3 8 Sur 24 Sur 0 -- -- 51
2020-11-12 15:00:00 20.7 12 Sur 28 Sur 0 -- -- 51
2020-11-12 14:00:00 20.1 18 Sur 30 Sur 0 -- -- 52
2020-11-12 13:00:00 19.4 17 Sur 44 Sur 0 -- -- 57
2020-11-12 12:00:00 17.4 17 Sur 41 Sur 0 -- -- 61
2020-11-12 11:00:00 16.9 19 Sur 33 Sur 0 -- -- 64
2020-11-12 10:00:00 13.5 9 Sur 19 Sur 0 -- -- 84
2020-11-12 09:00:00 11.7 3 Sur 8 Sur 0 -- -- 89
2020-11-12 08:00:00 12.1 3 Sur 7 Sur 0 -- -- 88
2020-11-12 07:00:00 11.9 0 Calma 4 Nordeste 0 -- -- 91
2020-11-12 06:00:00 11.6 2 Nordeste 5 Noroeste 0 -- -- 95
2020-11-12 05:00:00 12 2 Sur 10 Norte 0 -- -- 92
2020-11-12 04:00:00 14 5 Norte 22 Sur 0 -- -- 78
2020-11-12 03:00:00 15.3 13 Sur 40 Sur 0 -- -- 69
2020-11-12 02:00:00 15.4 23 Sur 50 Sur 0 -- -- 66
2020-11-12 01:00:00 15.3 27 Sur 56 Sur 0 -- -- 66
2020-11-12 00:00:00 15.4 24 Sur 51 Sur 0 -- -- 65
2020-11-11 23:00:00 14.9 31 Sur 63 Sudeste 0 -- -- 66
2020-11-11 22:00:00 14.6 30 Sur 67 Sur 0 -- -- 69
2020-11-11 21:00:00 15 36 Sur 81 Sudeste 0 -- -- 65
2020-11-11 20:00:00 15.5 39 Sur 71 Sur 0 -- -- 65
2020-11-11 19:00:00 15.6 40 Sur 71 Sur 0 -- -- 66
2020-11-11 18:00:00 15.6 35 Sur 64 Sur 0 -- -- 66
2020-11-11 17:00:00 15.8 29 Sur 77 Sur 0 -- -- 64
2020-11-11 16:00:00 16.3 35 Sur 68 Sur 0 -- -- 58
2020-11-11 15:00:00 16.5 40 Sur 85 Sur 0 -- -- 56
2020-11-11 14:00:00 16.2 55 Sur 93 Sur 0 -- -- 61
2020-11-11 13:00:00 16.4 44 Sur 79 Sur 0 -- -- 61
2020-11-11 12:00:00 16 36 Sur 73 Sudeste 0 -- -- 63
2020-11-11 11:00:00 14.6 28 Sur 52 Sur 0 -- -- 62
2020-11-11 10:00:00 14.4 33 Sur 54 Sur 0 -- -- 63
2020-11-11 09:00:00 12.8 13 Sur 40 Sur 0 -- -- 68
2020-11-11 08:00:00 12.8 24 Sur 41 Sur 0 -- -- 68
2020-11-11 07:00:00 13.2 23 Sur 38 Sur 0 -- -- 66
2020-11-11 06:00:00 12.6 13 Sur 37 Sur 0 -- -- 71
2020-11-11 05:00:00 9.9 9 Sur 28 Sur 0 -- -- 89
2020-11-11 04:00:00 9.6 2 Sur 6 Sur 0 -- -- 87
2020-11-11 03:00:00 9.8 5 Sur 12 Sur 0 -- -- 87
2020-11-11 02:00:00 10.4 0 Calma 6 Norte 0 -- -- 85
2020-11-11 01:00:00 10.2 0 Calma 6 Sur 0 -- -- 90
2020-11-11 00:00:00 9.9 0 Calma 6 Sur 0 -- -- 89
2020-11-10 23:00:00 10.3 4 Sur 6 Sur 0 -- -- 89
2020-11-10 22:00:00 10 4 Sur 8 Sur 0 -- -- 93
2020-11-10 21:00:00 10 6 Sur 8 Sur 0 -- -- 93
2020-11-10 20:00:00 10.1 5 Sur 6 Sur 0 -- -- 93
2020-11-10 19:00:00 10.5 3 Sur 4 Sudoeste 0 -- -- 90
2020-11-10 18:00:00 11.5 0 Calma 6 Noroeste 0 -- -- 88
2020-11-10 17:00:00 13 6 Norte 10 Norte 0 -- -- 83
2020-11-10 16:00:00 15.1 8 Norte 10 Norte 0 -- -- 78
2020-11-10 15:00:00 15.4 4 Noroeste 15 Sur 0 -- -- 75
2020-11-10 14:00:00 15.2 11 Sur 19 Sudeste 0 -- -- 72
2020-11-10 13:00:00 14.7 8 Sur 18 Sur 0 -- -- 73
2020-11-10 12:00:00 13.7 9 Sur 20 Sur 0 -- -- 75
2020-11-10 11:00:00 12.8 11 Sur 22 Sur 0 -- -- 79
2020-11-10 10:00:00 11.2 11 Sur 15 Sur 0 -- -- 93
2020-11-10 09:00:00 9.4 3 Sudoeste 5 Sur 0 -- -- 96
2020-11-10 08:00:00 9.4 3 Sur 5 Sur 0 -- -- 95
2020-11-10 07:00:00 8.9 3 Sudoeste 8 Sur 0 -- -- 96
2020-11-10 06:00:00 9.9 4 Sur 13 Sur 0 -- -- 96
2020-11-10 05:00:00 10.5 5 Sur 9 Sur 0 -- -- 96
2020-11-10 04:00:00 10.8 6 Sur 13 Sur 0 -- -- 96
2020-11-10 03:00:00 10.9 6 Sur 10 Sur 0 -- -- 96
2020-11-10 02:00:00 10.8 4 Sudoeste 8 Sur 0 -- -- 96
2020-11-10 01:00:00 11.1 5 Sur 12 Sur 0 -- -- 94
2020-11-10 00:00:00 11.8 9 Sur 19 Sudoeste 0 -- -- 94
2020-11-09 23:00:00 11.8 5 Sur 10 Sur 0 -- -- 94
2020-11-09 22:00:00 11.7 3 Sur 6 Sur 0 -- -- 94
2020-11-09 21:00:00 11.9 2 Sudoeste 5 Sur 0 -- -- 93
2020-11-09 20:00:00 11.9 2 Sur 8 Sudoeste 0 -- -- 92
2020-11-09 19:00:00 13.1 0 Calma 8 Sur 0 -- -- 90
2020-11-09 18:00:00 14.1 4 Sur 12 Noroeste 0 -- -- 86
2020-11-09 17:00:00 14.8 5 Oeste 32 Sur 0 -- -- 82
2020-11-09 16:00:00 16.2 19 Sur 35 Sur 0 -- -- 78
2020-11-09 15:00:00 15.6 22 Sur 36 Sur 0 -- -- 78
2020-11-09 14:00:00 15.2 25 Sur 40 Sur 0 -- -- 78
2020-11-09 13:00:00 15.3 26 Sur 41 Sur 0 -- -- 80
2020-11-09 12:00:00 14.2 19 Sur 34 Sur 0 -- -- 85
2020-11-09 11:00:00 13 14 Sur 31 Sur 0.2 -- -- 95
2020-11-09 10:00:00 12.4 14 Sur 30 Sur 0.8 -- -- 96
2020-11-09 09:00:00 12.1 15 Sur 38 Sur 0.8 -- -- 94
2020-11-09 08:00:00 12.3 22 Sur 52 Sur 0.6 -- -- 93
2020-11-09 07:00:00 12.1 23 Sur 43 Sur 0.8 -- -- 95
2020-11-09 06:00:00 11.7 16 Sur 37 Sur 2.6 -- -- 95
2020-11-09 05:00:00 12.1 14 Sur 49 Sur 2.8 -- -- 91
2020-11-09 04:00:00 13.2 20 Sur 42 Sur 0.4 -- -- 82
2020-11-09 03:00:00 14.3 25 Sur 55 Sur 0 -- -- 74
2020-11-09 02:00:00 14.3 29 Sur 61 Sur 0 -- -- 74
2020-11-09 01:00:00 14.1 31 Sur 53 Sur 0 -- -- 77
2020-11-09 00:00:00 13.9 22 Sur 39 Sur 0 -- -- 79
2020-11-08 23:00:00 13.8 21 Sur 49 Sur 0 -- -- 79
2020-11-08 22:00:00 14 28 Sur 51 Sudoeste 0 -- -- 80
2020-11-08 21:00:00 14.1 24 Sur 61 Sudoeste 0 -- -- 82
2020-11-08 20:00:00 13.9 27 Sur 55 Sur 0.8 -- -- 86
2020-11-08 19:00:00 14.5 24 Sur 42 Sur 0.2 -- -- 82
2020-11-08 18:00:00 14.4 24 Sur 41 Sur 0.8 -- -- 85
2020-11-08 17:00:00 16.4 14 Sur 49 Sudoeste 0 -- -- 72
2020-11-08 16:00:00 17.5 27 Sur 52 Sur 0 -- -- 65
2020-11-08 15:00:00 18.3 21 Sur 49 Sur 0 -- -- 69
2020-11-08 14:00:00 18.1 24 Sur 58 Sur 0 -- -- 65
2020-11-08 13:00:00 18.1 22 Sur 42 Sur 0 -- -- 68
2020-11-08 12:00:00 17.1 32 Sur 54 Sudoeste 0 -- -- 73
2020-11-08 11:00:00 12.8 31 Sur 46 Sur 1.6 -- -- 93
2020-11-08 10:00:00 11.8 24 Sur 43 Sur 4 -- -- 91
2020-11-08 09:00:00 15.5 12 Sudoeste 37 Sur 0 -- -- 72
2020-11-08 08:00:00 15.7 17 Sur 37 Sur 0 -- -- 69
2020-11-08 07:00:00 15.4 16 Sur 33 Sur 0 -- -- 71
2020-11-08 06:00:00 15.2 21 Sur 36 Sur 0 -- -- 73
2020-11-08 05:00:00 14.7 16 Sur 28 Sur 0 -- -- 75
2020-11-08 04:00:00 15.2 10 Sur 37 Sur 0 -- -- 73
2020-11-08 03:00:00 15.5 12 Sur 33 Sur 0 -- -- 71
2020-11-08 02:00:00 14.9 19 Sur 37 Sur 0 -- -- 73
2020-11-08 01:00:00 13.8 7 Sur 35 Sur 0 -- -- 76
2020-11-08 00:00:00 15.1 21 Sur 38 Sur 0 -- -- 72
2020-11-07 23:00:00 15.2 24 Sur 43 Sur 0 -- -- 72
2020-11-07 22:00:00 14.5 19 Sur 35 Sur 0 -- -- 77
2020-11-07 21:00:00 15.1 19 Sur 50 Sudoeste 0 -- -- 74
2020-11-07 20:00:00 15.6 28 Sur 62 Sur 0 -- -- 73
2020-11-07 19:00:00 15.5 28 Sur 51 Sur 0 -- -- 74
2020-11-07 18:00:00 16 33 Sur 60 Sur 0 -- -- 71
2020-11-07 17:00:00 16.7 30 Sur 67 Sudeste 0 -- -- 67
2020-11-07 16:00:00 18.6 26 Sur 51 Sur 0 -- -- 60
2020-11-07 15:00:00 19 23 Sur 46 Sur 0 -- -- 59
2020-11-07 14:00:00 18.3 24 Sur 50 Sur 0 -- -- 58
2020-11-07 13:00:00 18.1 28 Sur 50 Sur 0 -- -- 62
2020-11-07 12:00:00 16.9 28 Sur 46 Sur 0 -- -- 67
2020-11-07 11:00:00 15 13 Sur 35 Sur 0 -- -- 78
2020-11-07 10:00:00 12.6 18 Sur 35 Sur 0 -- -- 95
2020-11-07 09:00:00 9.8 7 Sur 16 Sur 0 -- -- 100
2020-11-07 08:00:00 10 4 Sur 9 Sur 0 -- -- 98
2020-11-07 07:00:00 10.3 5 Sur 8 Sur 0 -- -- 99
2020-11-07 06:00:00 10.6 5 Sur 6 Sur 0 -- -- 98
2020-11-07 05:00:00 11.4 0 Calma 9 Nordeste 0 -- -- 97
2020-11-07 04:00:00 11.6 4 Sur 6 Sur 0 -- -- 99
2020-11-07 03:00:00 11.9 4 Sur 6 Sur 0 -- -- 99
2020-11-07 02:00:00 11.7 0 Calma 5 Sudoeste 0 -- -- 99
2020-11-07 01:00:00 11.8 3 Sur 10 Sur 0 -- -- 99
2020-11-07 00:00:00 11.7 8 Sur 20 Sur 0.2 -- -- 98
2020-11-06 23:00:00 12.1 8 Sur 31 Sur 1.6 -- -- 96
2020-11-06 22:00:00 13.4 23 Sur 49 Sur 0.8 -- -- 87
2020-11-06 21:00:00 14.4 6 Sur 21 Sur 0 -- -- 87
2020-11-06 20:00:00 15 7 Noroeste 27 Norte 0 -- -- 86
2020-11-06 19:00:00 15 5 Norte 11 Noroeste 0 -- -- 86
2020-11-06 18:00:00 15.7 5 Sur 9 Sudeste 0 -- -- 83
2020-11-06 17:00:00 17.4 4 Nordeste 10 Sur 0 -- -- 79
2020-11-06 16:00:00 17.5 4 Sudoeste 9 Sur 0 -- -- 78
2020-11-06 15:00:00 17.3 2 Sur 12 Sur 0 -- -- 74
2020-11-06 14:00:00 16.8 11 Norte 15 Norte 0 -- -- 78
2020-11-06 13:00:00 18.1 5 Norte 13 Norte 0 -- -- 67
2020-11-06 12:00:00 16.6 8 Nordeste 12 Noroeste 0 -- -- 72
2020-11-06 11:00:00 15.7 8 Norte 10 Norte 0 -- -- 79
2020-11-06 10:00:00 13.2 4 Sur 15 Sur 0 -- -- 82
2020-11-06 09:00:00 13 3 Noroeste 13 Este 0 -- -- 79
2020-11-06 08:00:00 11.7 5 Sur 13 Sur 0 -- -- 84
2020-11-06 07:00:00 13.3 3 Norte 10 Sur 0 -- -- 77
2020-11-06 06:00:00 11.8 4 Sur 15 Sur 0 -- -- 84
2020-11-06 05:00:00 11.3 7 Sur 10 Sur 0 -- -- 88
2020-11-06 04:00:00 11 2 Noroeste 9 Sur 0 -- -- 89
2020-11-06 03:00:00 10.5 3 Sudeste 7 Sur 0 -- -- 92
2020-11-06 02:00:00 9.8 4 Nordeste 15 Sur 0 -- -- 94
2020-11-06 01:00:00 9.1 11 Sur 18 Sur 0 -- -- 97
2020-11-06 00:00:00 9.2 6 Norte 13 Sur 0 -- -- 97
2020-11-05 23:00:00 8.8 4 Sur 14 Sur 0 -- -- 98
2020-11-05 22:00:00 9.2 2 Sur 9 Sur 0 -- -- 97
2020-11-05 21:00:00 9.4 4 Sur 11 Sur 0 -- -- 97
2020-11-05 20:00:00 9.3 6 Sur 12 Sur 0 -- -- 97
2020-11-05 19:00:00 9.4 6 Sur 11 Sur 0 -- -- 95
2020-11-05 18:00:00 9.8 4 Sur 8 Sudeste 0 -- -- 93
2020-11-05 17:00:00 10.3 4 Sur 14 Norte 0 -- -- 91
2020-11-05 16:00:00 10.8 12 Norte 15 Norte 0 -- -- 88
2020-11-05 15:00:00 10.9 13 Norte 24 Norte 0 -- -- 87
2020-11-05 14:00:00 11.2 17 Norte 28 Norte 0 -- -- 84
2020-11-05 13:00:00 11 18 Norte 30 Norte 0 -- -- 83
2020-11-05 12:00:00 10.6 9 Norte 36 Norte 0 -- -- 80
2020-11-05 11:00:00 10 19 Norte 32 Norte 0 -- -- 82
2020-11-05 10:00:00 9.6 12 Norte 39 Norte 0 -- -- 82
2020-11-05 09:00:00 9.3 21 Norte 40 Nordeste 0 -- -- 82
2020-11-05 08:00:00 8.8 22 Norte 37 Norte 0 -- -- 83
2020-11-05 07:00:00 9.1 13 Norte 47 Norte 0 -- -- 81
2020-11-05 06:00:00 9.2 24 Norte 39 Norte 0 -- -- 82
2020-11-05 05:00:00 8.8 18 Norte 35 Norte 0 -- -- 82
2020-11-05 04:00:00 8.5 18 Norte 35 Nordeste 0 -- -- 80
2020-11-05 03:00:00 9.1 20 Norte 48 Noroeste 0 -- -- 76
2020-11-05 02:00:00 9.3 26 Norte 51 Norte 0 -- -- 78
2020-11-05 01:00:00 9 18 Norte 35 Norte 0 -- -- 80
2020-11-05 00:00:00 9.1 22 Norte 51 Norte 0 -- -- 80
2020-11-04 23:00:00 9.1 23 Norte 51 Norte 0 -- -- 81
2020-11-04 22:00:00 9 27 Norte 51 Norte 0 -- -- 80
2020-11-04 21:00:00 9.1 26 Norte 51 Noroeste 0 -- -- 82
2020-11-04 20:00:00 8.7 27 Norte 41 Norte 0 -- -- 85
2020-11-04 19:00:00 8 22 Norte 40 Norte 0 -- -- 91
2020-11-04 18:00:00 7.7 22 Norte 52 Norte 0 -- -- 91
2020-11-04 17:00:00 8.8 27 Norte 37 Norte 0 -- -- 90
2020-11-04 16:00:00 8.9 29 Norte 44 Noroeste 0 -- -- 87
2020-11-04 15:00:00 10 26 Norte 38 Norte 0.2 -- -- 94
2020-11-04 14:00:00 9.1 18 Norte 30 Norte 0 -- -- 99
2020-11-04 13:00:00 8.4 16 Norte 20 Norte 0 -- -- 100
2020-11-04 12:00:00 8 12 Norte 18 Norte 0 -- -- 100
2020-11-04 11:00:00 7.3 6 Noroeste 14 Norte 0.4 -- -- 100
2020-11-04 10:00:00 6.7 0 Calma 11 Sur 0.2 -- -- 100
2020-11-04 09:00:00 5.8 5 Sur 8 Sur 0 -- -- 100
2020-11-04 08:00:00 5.6 4 Sur 8 Sur 0.8 -- -- 100
2020-11-04 07:00:00 5.6 3 Sur 6 Sudoeste 1 -- -- 100
2020-11-04 06:00:00 5 3 Sudoeste 9 Sur 0 -- -- 100
2020-11-04 05:00:00 5.7 4 Sur 6 Sudoeste 0 -- -- 100
2020-11-04 04:00:00 5.8 5 Sur 11 Sur 1.2 -- -- 100
2020-11-04 03:00:00 5.7 4 Sur 9 Sur 0 -- -- 100
2020-11-04 02:00:00 5.3 5 Sur 10 Sur 0 -- -- 100
2020-11-04 01:00:00 5.7 6 Sur 9 Sur 0 -- -- 99
2020-11-04 00:00:00 6.6 4 Sur 9 Sur 0.2 -- -- 98
2020-11-03 23:00:00 6.9 3 Sudeste 13 Noroeste 0.6 -- -- 96
2020-11-03 22:00:00 6.6 3 Sudoeste 8 Sudoeste 0 -- -- 95
2020-11-03 21:00:00 6.6 0 Calma 3 Sur 0 -- -- 94
2020-11-03 20:00:00 7.6 0 Calma 9 Este 0 -- -- 91
2020-11-03 19:00:00 8.5 0 Calma 4 Oeste 0 -- -- 91
2020-11-03 18:00:00 8.7 0 Calma 9 Norte 0 -- -- 86
2020-11-03 17:00:00 9.5 8 Noroeste 26 Norte 0 -- -- 82
2020-11-03 16:00:00 10.7 17 Norte 26 Norte 0 -- -- 79
2020-11-03 15:00:00 11.2 19 Norte 26 Norte 0 -- -- 83
2020-11-03 14:00:00 10.2 14 Norte 19 Noroeste 0 -- -- 86
2020-11-03 13:00:00 10.2 6 Norte 14 Norte 0 -- -- 94
2020-11-03 12:00:00 9.2 15 Norte 26 Norte 0.8 -- -- 96
2020-11-03 11:00:00 9 4 Noroeste 18 Norte 0.2 -- -- 100
2020-11-03 10:00:00 8.9 0 Calma 8 Noroeste 0 -- -- 100
2020-11-03 09:00:00 8.5 3 Nordeste 13 Norte 0.4 -- -- 100
2020-11-03 08:00:00 8.6 2 Sur 5 Noroeste 0.2 -- -- 100
2020-11-03 07:00:00 8.8 4 Nordeste 15 Norte 1.2 -- -- 100
2020-11-03 06:00:00 8.4 4 Sur 16 Noroeste 0.2 -- -- 100
2020-11-03 05:00:00 8.1 5 Sur 15 Norte 0.8 -- -- 100
2020-11-03 04:00:00 8.2 10 Norte 18 Norte 0.2 -- -- 100
2020-11-03 03:00:00 7.4 8 Sur 14 Sur 0 -- -- 100
2020-11-03 02:00:00 7.4 6 Sur 18 Sudoeste 0 -- -- 100
2020-11-03 01:00:00 7.9 9 Sur 16 Sur 0 -- -- 100
2020-11-03 00:00:00 7.9 5 Sur 10 Sudoeste 0 -- -- 100
2020-11-02 23:00:00 8.6 4 Sur 6 Sur 0 -- -- 99
2020-11-02 22:00:00 9.3 0 Calma 6 Sur 0 -- -- 98
2020-11-02 21:00:00 10.1 0 Calma 0 Calma 0 -- -- 99
2020-11-02 20:00:00 10.7 0 Calma 2 Sudoeste 0 -- -- 99
2020-11-02 19:00:00 10.8 0 Calma 4 Sur 0 -- -- 99
2020-11-02 18:00:00 11 3 Sur 4 Sur 0 -- -- 99
2020-11-02 17:00:00 10.9 4 Sur 14 Nordeste 0.8 -- -- 100
2020-11-02 16:00:00 11.1 10 Norte 15 Norte 1.4 -- -- 99
2020-11-02 15:00:00 11.8 9 Norte 14 Nordeste 1.4 -- -- 98
2020-11-02 14:00:00 12.3 0 Calma 7 Nordeste 0.4 -- -- 98
2020-11-02 13:00:00 11.8 5 Nordeste 27 Nordeste 2.8 -- -- 99
2020-11-02 12:00:00 12.9 14 Norte 20 Norte 5.6 -- -- 98
2020-11-02 11:00:00 14.4 12 Nordeste 41 Sur 2.8 -- -- 94
2020-11-02 10:00:00 19.2 26 Sur 62 Sur 0 -- -- 76
2020-11-02 09:00:00 18.7 35 Sur 66 Sur 0 -- -- 77
2020-11-02 08:00:00 18.4 33 Sur 67 Sur 0 -- -- 77
2020-11-02 07:00:00 18.3 36 Sur 67 Sur 0 -- -- 76
2020-11-02 06:00:00 18.3 37 Sur 64 Sudoeste 0 -- -- 77
2020-11-02 05:00:00 18 32 Sur 56 Sudoeste 0 -- -- 77
2020-11-02 04:00:00 18.1 31 Sur 54 Sur 0 -- -- 77
2020-11-02 03:00:00 17.4 27 Sur 62 Sur 0 -- -- 84
2020-11-02 02:00:00 16.9 34 Sur 59 Sur 0.2 -- -- 91
2020-11-02 01:00:00 17.7 39 Sur 63 Sur 0 -- -- 88
2020-11-02 00:00:00 17.3 30 Sur 63 Sur 0 -- -- 89
2020-11-01 23:00:00 19.2 33 Sur 60 Sur 0 -- -- 78
2020-11-01 22:00:00 19.6 39 Sur 65 Sudeste 0 -- -- 76
2020-11-01 21:00:00 19.7 37 Sur 70 Sur 0 -- -- 75
2020-11-01 20:00:00 19.7 37 Sur 74 Sur 0 -- -- 76
2020-11-01 19:00:00 20 47 Sur 88 Sur 0 -- -- 75
2020-11-01 18:00:00 20.2 49 Sur 73 Sur 0 -- -- 75
2020-11-01 17:00:00 20.4 32 Sur 69 Sur 0 -- -- 76
2020-11-01 16:00:00 20.5 39 Sur 68 Sur 0 -- -- 75
2020-11-01 15:00:00 20.5 44 Sur 75 Sur 0 -- -- 75
2020-11-01 14:00:00 20.9 40 Sur 69 Sur 0 -- -- 74
2020-11-01 13:00:00 20.6 39 Sur 86 Sur 0 -- -- 75
2020-11-01 12:00:00 19.7 44 Sur 83 Sur 0 -- -- 80
2020-11-01 11:00:00 19.5 42 Sur 66 Sur 0 -- -- 79
2020-11-01 10:00:00 19.1 37 Sur 75 Sur 0 -- -- 81
2020-11-01 09:00:00 19.2 38 Sur 67 Sur 0 -- -- 78
2020-11-01 08:00:00 18.7 36 Sur 71 Sur 0 -- -- 79
2020-11-01 07:00:00 18.3 39 Sur 70 Sur 0.2 -- -- 82
2020-11-01 06:00:00 18.6 42 Sur 72 Sur 0 -- -- 79
2020-11-01 05:00:00 18.4 36 Sur 82 Sur 0.2 -- -- 81
2020-11-01 04:00:00 19.2 48 Sur 83 Sur 0 -- -- 74
2020-11-01 03:00:00 19.3 40 Sur 67 Sur 0 -- -- 73
2020-11-01 02:00:00 18.8 31 Sur 63 Sur 0 -- -- 74
2020-11-01 01:00:00 18 42 Sur 80 Sur 0 -- -- 79
2020-11-01 00:00:00 18.7 42 Sur 72 Sur 0 -- -- 75
2020-10-31 23:00:00 19 41 Sur 65 Sur 0 -- -- 74
2020-10-31 22:00:00 19 40 Sur 87 Sur 0 -- -- 73
2020-10-31 21:00:00 19.1 38 Sur 67 Sur 0 -- -- 73
2020-10-31 20:00:00 18.9 40 Sur 64 Sur 0 -- -- 74
2020-10-31 19:00:00 19 34 Sur 64 Sur 0 -- -- 74
2020-10-31 18:00:00 19.4 36 Sur 66 Sur 0 -- -- 73
2020-10-31 17:00:00 19.7 39 Sur 71 Sur 0 -- -- 72
2020-10-31 16:00:00 19.7 39 Sur 67 Sur 0 -- -- 72
2020-10-31 15:00:00 20 41 Sur 76 Sur 0 -- -- 71
2020-10-31 14:00:00 19.7 37 Sur 72 Sur 0 -- -- 72
2020-10-31 13:00:00 19.2 38 Sur 62 Sur 0 -- -- 73
2020-10-31 12:00:00 19.4 26 Sur 54 Sur 0 -- -- 70
2020-10-31 11:00:00 19.1 31 Sur 67 Sur 0 -- -- 70
2020-10-31 10:00:00 18.2 40 Sur 68 Sur 0 -- -- 72
2020-10-31 09:00:00 17.9 46 Sur 78 Sur 0 -- -- 73
2020-10-31 08:00:00 17.9 47 Sur 78 Sudeste 0 -- -- 73
2020-10-31 07:00:00 17.8 37 Sur 76 Sur 0 -- -- 73
2020-10-31 06:00:00 17.7 44 Sur 77 Sudoeste 0 -- -- 73
2020-10-31 05:00:00 17.5 45 Sur 75 Sur 0 -- -- 73
2020-10-31 04:00:00 17.4 37 Sur 70 Sur 0 -- -- 70
2020-10-31 03:00:00 17.2 36 Sur 65 Sur 0 -- -- 70
2020-10-31 02:00:00 15.6 19 Sur 38 Sur 0 -- -- 76
2020-10-31 01:00:00 15.5 21 Sur 40 Sur 0 -- -- 76
2020-10-31 00:00:00 14.3 13 Sur 23 Sudoeste 0 -- -- 81
2020-10-30 23:00:00 14.7 8 Sur 27 Sur 0 -- -- 81
2020-10-30 22:00:00 14.9 9 Sudoeste 25 Sudoeste 0 -- -- 84
2020-10-30 21:00:00 14.1 0 Calma 4 Oeste 0 -- -- 83
2020-10-30 20:00:00 15 0 Calma -- -- 0 -- -- 78
2020-10-30 19:00:00 15.9 0 Calma 4 Sudoeste 0 -- -- 75
2020-10-30 18:00:00 17.1 3 Sudoeste 13 Sur 0 -- -- 71
2020-10-30 17:00:00 19.6 6 Sur 23 Sur 0 -- -- 64
2020-10-30 16:00:00 20.8 13 Sur 31 Sur 0 -- -- 58
2020-10-30 15:00:00 21 14 Sur 25 Sur 0 -- -- 56
2020-10-30 14:00:00 21.1 8 Sur 27 Sur 0 -- -- 56
2020-10-30 13:00:00 20.2 16 Sur 35 Sudoeste 0 -- -- 55
2020-10-30 12:00:00 19 17 Sur 29 Sur 0 -- -- 60
2020-10-30 11:00:00 17.6 15 Sur 34 Sur 0 -- -- 63
2020-10-30 10:00:00 15.9 18 Sur 42 Sur 0 -- -- 69
2020-10-30 09:00:00 13.9 23 Sur 38 Sur 0 -- -- 76
2020-10-30 08:00:00 11.7 19 Sur 31 Sur 0 -- -- 86
2020-10-30 07:00:00 9.2 7 Sur 17 Sur 0 -- -- 97
2020-10-30 06:00:00 8.8 3 Sur 5 Sur 0 -- -- 93
2020-10-30 05:00:00 8.8 4 Sur 6 Sur 0 -- -- 96
2020-10-30 04:00:00 8.7 4 Sur 6 Sur 0 -- -- 97
2020-10-30 03:00:00 8.8 3 Sur 4 Sur 0 -- -- 96
2020-10-30 02:00:00 8.8 3 Sur 5 Sur 0 -- -- 96
2020-10-30 01:00:00 9.3 3 Sur 5 Sur 0 -- -- 95
2020-10-30 00:00:00 9.7 2 Sur 4 Sur 0 -- -- 94
2020-10-29 23:00:00 10.2 2 Sur 5 Sur 0 -- -- 94
2020-10-29 22:00:00 10.4 0 Calma 6 Sudoeste 0 -- -- 93
2020-10-29 21:00:00 10.6 4 Sudoeste 9 Sur 0 -- -- 92
2020-10-29 20:00:00 11.6 4 Sur 6 Sur 0 -- -- 87
2020-10-29 19:00:00 13.3 0 Calma 9 Sur 0 -- -- 82
2020-10-29 18:00:00 15 4 Sur 20 Sur 0 -- -- 76
2020-10-29 17:00:00 16.9 11 Sur 25 Sur 0 -- -- 68
2020-10-29 16:00:00 17.9 14 Sur 31 Sur 0 -- -- 64
2020-10-29 15:00:00 17.9 14 Sur 27 Sur 0 -- -- 64
2020-10-29 14:00:00 17.1 15 Sur 27 Sur 0 -- -- 65
2020-10-29 13:00:00 16.3 20 Sur 35 Sur 0 -- -- 69
2020-10-29 12:00:00 15.4 13 Sur 23 Sur 0 -- -- 72
2020-10-29 11:00:00 14.2 13 Sur 23 Sur 0 -- -- 76
2020-10-29 10:00:00 12 16 Sur 24 Sur 0 -- -- 86
2020-10-29 09:00:00 9.2 5 Sur 25 Sur 0 -- -- 90
2020-10-29 08:00:00 10.5 11 Sur 34 Sur 0 -- -- 84
2020-10-29 07:00:00 11.2 19 Sur 31 Sudoeste 0 -- -- 82
2020-10-29 06:00:00 11.5 11 Sur 23 Sur 0 -- -- 83
2020-10-29 05:00:00 12 14 Sur 33 Sur 0 -- -- 83
2020-10-29 04:00:00 11.6 12 Sur 22 Sur 0 -- -- 87
2020-10-29 03:00:00 11.5 7 Sur 11 Sur 0 -- -- 87
2020-10-29 02:00:00 11.5 5 Sur 22 Sur 0 -- -- 84
2020-10-29 01:00:00 11.8 10 Sudoeste 18 Sudoeste 0 -- -- 86
2020-10-29 00:00:00 10.6 9 Sudoeste 22 Sur 0 -- -- 90
2020-10-28 23:00:00 11.5 14 Sur 25 Sur 0 -- -- 87
2020-10-28 22:00:00 11.5 11 Sur 23 Sur 0 -- -- 87
2020-10-28 21:00:00 12.8 16 Sur 27 Sur 0 -- -- 83
2020-10-28 20:00:00 12.5 7 Sur 19 Sudoeste 0 -- -- 83
2020-10-28 19:00:00 13.7 13 Sur 28 Sur 0 -- -- 77
2020-10-28 18:00:00 14.1 14 Sur 38 Sur 0 -- -- 78
2020-10-28 17:00:00 14.8 24 Sur 41 Sur 0 -- -- 73
2020-10-28 16:00:00 16 26 Sur 47 Sur 0 -- -- 71
2020-10-28 15:00:00 16.1 26 Sur 43 Sur 0 -- -- 68
2020-10-28 14:00:00 15.3 23 Sur 40 Sur 0 -- -- 74
2020-10-28 13:00:00 14.6 26 Sur 36 Sur 0 -- -- 81
2020-10-28 12:00:00 12.1 17 Sur 44 Sur 0 -- -- 89
2020-10-28 11:00:00 13.8 19 Sur 43 Sur 0 -- -- 73
2020-10-28 10:00:00 12.7 15 Sur 29 Sur 0 -- -- 77
2020-10-28 09:00:00 12 10 Sur 23 Sur 0 -- -- 80
2020-10-28 08:00:00 11.2 12 Sur 27 Sur 0 -- -- 85
2020-10-28 07:00:00 11.7 14 Sur 33 Sur 0 -- -- 86
2020-10-28 06:00:00 12 18 Sur 33 Sur 0 -- -- 87
2020-10-28 05:00:00 12.2 17 Sur 36 Sur 0 -- -- 88
2020-10-28 04:00:00 12 19 Sur 30 Sur 0 -- -- 90
2020-10-28 03:00:00 11.8 15 Sur 34 Sur 0 -- -- 92
2020-10-28 02:00:00 12.2 21 Sur 36 Sur 0 -- -- 92
2020-10-28 01:00:00 11.9 14 Sur 30 Sudeste 0 -- -- 97
2020-10-28 00:00:00 12.3 15 Sur 31 Sur 0.2 -- -- 99